createdAt,value
2017-06-28T00:01:05.720Z,18.40
2017-06-28T00:03:32.449Z,18.30
2017-06-28T00:05:59.129Z,18.40
2017-06-28T00:08:25.106Z,18.40
2017-06-28T00:10:51.053Z,18.30
2017-06-28T00:13:17.040Z,18.30
2017-06-28T00:15:42.985Z,18.30
2017-06-28T00:18:08.971Z,18.20
2017-06-28T00:20:34.918Z,18.20
2017-06-28T00:23:01.612Z,18.10
2017-06-28T00:25:27.596Z,18.10
2017-06-28T00:27:53.538Z,18.10
2017-06-28T00:30:19.521Z,18.10
2017-06-28T00:32:45.501Z,18.10
2017-06-28T00:35:11.476Z,18.20
2017-06-28T00:37:37.425Z,18.20
2017-06-28T00:40:03.406Z,18.30
2017-06-28T00:42:29.340Z,18.30
2017-06-28T00:44:55.284Z,18.20
2017-06-28T00:47:21.273Z,18.10
2017-06-28T00:49:54.233Z,18.10
2017-06-28T00:52:20.229Z,18.10
2017-06-28T00:54:46.172Z,18.00
2017-06-28T00:57:12.155Z,17.90
2017-06-28T00:59:38.092Z,18.00
2017-06-28T01:02:04.076Z,17.90
2017-06-28T01:04:30.013Z,17.90
2017-06-28T01:06:55.960Z,17.90
2017-06-28T01:09:22.677Z,17.70
2017-06-28T01:11:48.615Z,17.70
2017-06-28T01:14:14.601Z,17.70
2017-06-28T01:16:40.584Z,17.80
2017-06-28T01:19:06.518Z,17.80
2017-06-28T01:21:33.237Z,17.60
2017-06-28T01:23:59.212Z,17.60
2017-06-28T01:26:25.154Z,17.60
2017-06-28T01:28:51.125Z,17.60
2017-06-28T01:31:17.065Z,17.60
2017-06-28T01:33:43.069Z,17.60
2017-06-28T01:36:09.000Z,17.50
2017-06-28T01:38:34.990Z,17.60
2017-06-28T01:41:00.953Z,17.50
2017-06-28T01:43:27.634Z,17.50
2017-06-28T01:45:53.622Z,17.50
2017-06-28T01:48:19.560Z,17.50
2017-06-28T01:50:45.485Z,17.40
2017-06-28T01:53:11.453Z,17.40
2017-06-28T01:55:37.433Z,17.30
2017-06-28T01:58:03.377Z,17.30
2017-06-28T02:00:29.370Z,17.20
2017-06-28T02:02:55.333Z,17.20
2017-06-28T02:05:21.277Z,17.30
2017-06-28T02:07:47.266Z,17.30
2017-06-28T02:10:13.213Z,17.20
2017-06-28T02:12:46.225Z,17.20
2017-06-28T02:15:12.163Z,17.20
2017-06-28T02:17:38.109Z,17.20
2017-06-28T02:20:04.105Z,17.20
2017-06-28T02:22:30.049Z,17.10
2017-06-28T02:24:55.989Z,17.10
2017-06-28T02:27:21.969Z,17.00
2017-06-28T02:29:47.956Z,17.00
2017-06-28T02:32:13.890Z,17.00
2017-06-28T02:34:40.606Z,16.90
2017-06-28T02:37:07.338Z,16.90
2017-06-28T02:39:34.086Z,16.90
2017-06-28T02:42:00.101Z,16.90
2017-06-28T02:44:26.042Z,16.80
2017-06-28T02:46:52.001Z,16.70
2017-06-28T02:49:17.985Z,16.70
2017-06-28T02:51:43.929Z,16.70
2017-06-28T02:54:09.921Z,16.70
2017-06-28T02:56:35.882Z,16.70
2017-06-28T02:59:01.868Z,16.70
2017-06-28T03:01:27.837Z,16.70
2017-06-28T03:03:54.523Z,16.80
2017-06-28T03:06:20.498Z,16.80
2017-06-28T03:08:46.485Z,16.80
2017-06-28T03:11:12.472Z,16.80
2017-06-28T03:13:38.422Z,16.80
2017-06-28T03:16:04.446Z,16.70
2017-06-28T03:18:30.405Z,16.70
2017-06-28T03:20:57.094Z,16.70
2017-06-28T03:23:23.097Z,16.60
2017-06-28T03:25:49.048Z,16.70
2017-06-28T03:28:15.738Z,16.70
2017-06-28T03:30:41.725Z,16.70
2017-06-28T03:33:07.681Z,16.70
2017-06-28T03:35:33.666Z,16.70
2017-06-28T03:38:00.349Z,16.70
2017-06-28T03:40:26.302Z,16.70
2017-06-28T03:42:53.026Z,16.70
2017-06-28T03:45:19.729Z,16.70
2017-06-28T03:47:45.685Z,16.70
2017-06-28T03:50:11.721Z,16.70
2017-06-28T03:52:37.661Z,16.70
2017-06-28T03:55:03.605Z,16.80
2017-06-28T03:57:29.585Z,16.80
2017-06-28T03:59:55.533Z,16.90
2017-06-28T04:02:21.487Z,16.80
2017-06-28T04:04:47.521Z,16.90
2017-06-28T04:07:14.209Z,17.00
2017-06-28T04:09:40.155Z,17.00
2017-06-28T04:12:06.877Z,17.00
2017-06-28T04:14:33.570Z,17.10
2017-06-28T04:16:59.565Z,17.00
2017-06-28T04:19:25.504Z,17.10
2017-06-28T04:21:51.448Z,17.20
2017-06-28T04:24:17.437Z,17.20
2017-06-28T04:26:43.401Z,17.20
2017-06-28T04:29:09.361Z,17.20
2017-06-28T04:31:36.085Z,17.20
2017-06-28T04:34:02.041Z,17.20
2017-06-28T04:36:28.037Z,17.30
2017-06-28T04:38:53.980Z,17.20
2017-06-28T04:41:19.946Z,17.30
2017-06-28T04:43:45.943Z,17.20
2017-06-28T04:46:11.921Z,17.30
2017-06-28T04:48:38.613Z,17.50
2017-06-28T04:51:04.598Z,17.40
2017-06-28T04:53:30.541Z,17.50
2017-06-28T04:55:56.505Z,17.50
2017-06-28T04:58:22.506Z,17.50
2017-06-28T05:00:48.465Z,17.60
2017-06-28T05:03:14.409Z,17.60
2017-06-28T05:05:40.389Z,17.60
2017-06-28T05:08:06.337Z,17.70
2017-06-28T05:10:32.345Z,17.70
2017-06-28T05:12:58.317Z,17.70
2017-06-28T05:15:24.275Z,17.80
2017-06-28T05:17:50.293Z,17.80
2017-06-28T05:20:16.253Z,17.80
2017-06-28T05:22:42.243Z,17.90
2017-06-28T05:25:08.234Z,17.90
2017-06-28T05:27:34.213Z,18.00
2017-06-28T05:30:00.165Z,18.00
2017-06-28T05:32:26.149Z,18.00
2017-06-28T05:34:52.094Z,18.10
2017-06-28T05:37:18.041Z,18.10
2017-06-28T05:39:44.812Z,18.30
2017-06-28T05:42:10.769Z,18.30
2017-06-28T05:44:36.705Z,18.30
2017-06-28T05:47:02.738Z,18.30
2017-06-28T05:49:28.681Z,18.40
2017-06-28T05:51:54.630Z,18.50
2017-06-28T05:54:20.605Z,18.50
2017-06-28T05:56:46.565Z,18.60
2017-06-28T05:59:12.522Z,18.60
2017-06-28T06:01:38.513Z,18.70
2017-06-28T06:04:04.452Z,18.60
2017-06-28T06:06:31.159Z,18.80
2017-06-28T06:08:57.142Z,18.80
2017-06-28T06:11:23.090Z,18.90
2017-06-28T06:13:49.785Z,19.00
2017-06-28T06:16:15.785Z,19.00
2017-06-28T06:18:41.741Z,19.10
2017-06-28T06:21:08.430Z,19.30
2017-06-28T06:23:34.422Z,19.20
2017-06-28T06:26:00.385Z,19.40
2017-06-28T06:28:26.338Z,19.40
2017-06-28T06:30:52.349Z,19.50
2017-06-28T06:33:18.292Z,19.60
2017-06-28T06:35:44.284Z,19.70
2017-06-28T06:38:10.245Z,19.80
2017-06-28T06:40:36.217Z,19.80
2017-06-28T06:43:02.197Z,19.90
2017-06-28T06:45:28.166Z,19.90
2017-06-28T06:47:54.144Z,20.00
2017-06-28T06:50:20.136Z,20.00
2017-06-28T06:52:46.093Z,20.00
2017-06-28T06:55:12.042Z,20.10
2017-06-28T06:57:38.019Z,20.20
2017-06-28T07:00:04.041Z,20.20
2017-06-28T07:02:29.987Z,20.30
2017-06-28T07:04:55.941Z,20.30
2017-06-28T07:07:21.967Z,20.40
2017-06-28T07:09:47.909Z,20.50
2017-06-28T07:12:28.889Z,20.60
2017-06-28T07:14:55.610Z,20.70
2017-06-28T07:17:21.565Z,20.70
2017-06-28T07:19:47.536Z,20.80
2017-06-28T07:22:13.526Z,20.80
2017-06-28T07:24:39.513Z,20.90
2017-06-28T07:27:06.201Z,21.00
2017-06-28T07:29:32.190Z,21.00
2017-06-28T07:31:58.137Z,21.10
2017-06-28T07:34:24.087Z,21.20
2017-06-28T07:36:50.086Z,21.30
2017-06-28T07:39:16.041Z,21.30
2017-06-28T07:41:41.993Z,21.40
2017-06-28T07:44:08.761Z,21.50
2017-06-28T07:46:34.713Z,21.50
2017-06-28T07:49:00.689Z,21.50
2017-06-28T07:51:26.681Z,21.60
2017-06-28T07:53:52.634Z,21.60
2017-06-28T07:56:18.593Z,21.80
2017-06-28T07:58:44.577Z,21.80
2017-06-28T08:01:10.530Z,21.90
2017-06-28T08:03:36.479Z,22.00
2017-06-28T08:06:03.244Z,22.10
2017-06-28T08:08:29.189Z,22.10
2017-06-28T08:10:55.188Z,22.20
2017-06-28T08:13:21.137Z,22.30
2017-06-28T08:15:47.079Z,22.30
2017-06-28T08:18:13.842Z,22.40
2017-06-28T08:20:39.838Z,22.40
2017-06-28T08:23:05.802Z,22.50
2017-06-28T08:25:31.789Z,22.60
2017-06-28T08:27:57.735Z,22.70
2017-06-28T08:30:23.676Z,22.80
2017-06-28T08:32:49.672Z,22.90
2017-06-28T08:35:16.357Z,23.10
2017-06-28T08:37:42.305Z,23.00
2017-06-28T08:40:09.040Z,23.20
2017-06-28T08:45:07.860Z,23.30
2017-06-28T08:47:33.857Z,23.40
2017-06-28T08:49:59.854Z,23.50
2017-06-28T08:52:25.812Z,23.60
2017-06-28T08:54:51.778Z,23.70
2017-06-28T08:57:17.829Z,23.60
2017-06-28T08:59:43.811Z,23.90
2017-06-28T09:02:09.762Z,23.90
2017-06-28T09:04:36.497Z,24.20
2017-06-28T09:07:03.181Z,24.20
2017-06-28T09:09:29.135Z,24.20
2017-06-28T09:11:55.109Z,24.30
2017-06-28T09:14:21.052Z,24.30
2017-06-28T09:16:47.046Z,24.40
2017-06-28T09:19:13.002Z,24.40
2017-06-28T09:21:38.956Z,24.60
2017-06-28T09:24:04.953Z,24.70
2017-06-28T09:26:30.897Z,24.80
2017-06-28T09:28:57.609Z,25.00
2017-06-28T09:31:24.328Z,25.00
2017-06-28T09:33:50.277Z,25.00
2017-06-28T09:36:16.225Z,25.20
2017-06-28T09:38:42.221Z,25.40
2017-06-28T09:41:08.174Z,25.50
2017-06-28T09:43:34.913Z,25.60
2017-06-28T09:46:00.908Z,25.60
2017-06-28T09:48:26.910Z,25.80
2017-06-28T09:50:53.594Z,25.90
2017-06-28T09:53:19.583Z,25.90
2017-06-28T09:55:45.538Z,25.90
2017-06-28T09:58:11.493Z,26.10
2017-06-28T10:00:37.479Z,26.10
2017-06-28T10:03:04.169Z,26.10
2017-06-28T10:05:30.117Z,26.10
2017-06-28T10:07:56.114Z,26.30
2017-06-28T10:10:22.056Z,26.40
2017-06-28T10:12:48.017Z,26.40
2017-06-28T10:15:13.993Z,26.50
2017-06-28T10:17:40.712Z,26.60
2017-06-28T10:20:06.765Z,26.60
2017-06-28T10:22:32.722Z,26.70
2017-06-28T10:24:58.669Z,26.90
2017-06-28T10:27:24.669Z,27.00
2017-06-28T10:29:50.908Z,27.10
2017-06-28T10:32:16.857Z,27.10
2017-06-28T10:34:43.580Z,27.30
2017-06-28T10:37:09.542Z,27.20
2017-06-28T10:39:35.498Z,27.40
2017-06-28T10:42:02.293Z,27.40
2017-06-28T10:44:28.233Z,27.40
2017-06-28T10:46:54.938Z,27.40
2017-06-28T10:49:20.991Z,27.40
2017-06-28T10:51:46.934Z,27.60
2017-06-28T10:54:12.877Z,27.60
2017-06-28T10:56:38.854Z,27.80
2017-06-28T10:59:04.807Z,27.90
2017-06-28T11:01:31.931Z,28.20
2017-06-28T11:03:57.971Z,28.10
2017-06-28T11:06:23.918Z,28.10
2017-06-28T11:08:49.918Z,28.30
2017-06-28T11:11:15.904Z,28.30
2017-06-28T11:13:41.846Z,28.20
2017-06-28T11:16:07.829Z,28.40
2017-06-28T11:18:33.774Z,28.40
2017-06-28T11:20:59.784Z,28.40
2017-06-28T11:23:25.774Z,28.50
2017-06-28T11:25:51.718Z,28.60
2017-06-28T11:28:17.670Z,28.70
2017-06-28T11:30:43.666Z,29.00
2017-06-28T11:33:09.605Z,29.20
2017-06-28T11:35:35.573Z,29.10
2017-06-28T11:38:01.565Z,28.90
2017-06-28T11:40:27.515Z,28.90
2017-06-28T11:42:53.481Z,28.90
2017-06-28T11:45:19.521Z,29.00
2017-06-28T11:47:45.530Z,29.40
2017-06-28T11:50:11.486Z,29.30
2017-06-28T11:52:37.441Z,29.40
2017-06-28T11:55:03.424Z,29.80
2017-06-28T11:57:29.368Z,30.00
2017-06-28T11:59:55.313Z,30.20
2017-06-28T12:02:22.093Z,30.40
2017-06-28T12:04:48.042Z,30.40
2017-06-28T12:07:13.983Z,30.50
2017-06-28T12:09:39.965Z,30.50
2017-06-28T12:12:06.649Z,30.80
2017-06-28T12:14:32.593Z,30.70
2017-06-28T12:16:58.593Z,30.90
2017-06-28T12:19:24.537Z,31.00
2017-06-28T12:21:50.482Z,31.10
2017-06-28T12:24:16.509Z,30.90
2017-06-28T12:26:42.466Z,30.80
2017-06-28T12:29:08.404Z,31.00
2017-06-28T12:31:34.386Z,30.50
2017-06-28T12:34:00.361Z,29.80
2017-06-28T12:36:27.050Z,28.80
2017-06-28T12:38:53.022Z,28.80
2017-06-28T12:41:19.031Z,27.90
2017-06-28T12:43:44.989Z,27.40
2017-06-28T12:46:10.940Z,27.50
2017-06-28T12:48:36.924Z,27.70
2017-06-28T12:51:02.867Z,27.70
2017-06-28T12:53:28.822Z,27.90
2017-06-28T12:55:54.806Z,27.90
2017-06-28T12:58:20.777Z,28.20
2017-06-28T13:00:46.738Z,28.50
2017-06-28T13:03:12.723Z,28.80
2017-06-28T13:05:39.414Z,29.60
2017-06-28T13:08:05.353Z,29.50
2017-06-28T13:10:31.341Z,30.00
2017-06-28T13:12:57.285Z,30.40
2017-06-28T13:15:23.233Z,30.50
2017-06-28T13:17:49.225Z,30.90
2017-06-28T13:20:15.165Z,30.40
2017-06-28T13:22:41.840Z,29.10
2017-06-28T13:25:07.829Z,29.10
2017-06-28T13:27:34.552Z,28.60
2017-06-28T13:30:00.497Z,29.00
2017-06-28T13:32:26.477Z,29.20
2017-06-28T13:34:52.418Z,29.30
2017-06-28T13:37:18.351Z,30.00
2017-06-28T13:39:44.341Z,29.80
2017-06-28T13:42:10.289Z,29.20
2017-06-28T13:44:36.289Z,28.90
2017-06-28T13:47:02.273Z,28.90
2017-06-28T13:49:28.253Z,28.90
2017-06-28T13:51:54.229Z,28.70
2017-06-28T13:54:20.169Z,28.40
2017-06-28T13:56:46.141Z,28.40
2017-06-28T13:59:12.077Z,28.20
2017-06-28T14:01:38.069Z,27.60
2017-06-28T14:04:04.065Z,27.30
2017-06-28T14:06:30.078Z,26.90
2017-06-28T14:08:56.069Z,26.80
2017-06-28T14:11:22.018Z,26.60
2017-06-28T14:13:47.953Z,26.40
2017-06-28T14:16:13.953Z,26.00
2017-06-28T14:18:39.905Z,25.40
2017-06-28T14:21:06.625Z,24.60
2017-06-28T14:23:33.377Z,24.20
2017-06-28T14:25:59.317Z,24.10
2017-06-28T14:28:25.266Z,23.90
2017-06-28T14:30:51.997Z,23.90
2017-06-28T14:33:18.674Z,23.70
2017-06-28T14:35:44.622Z,23.70
2017-06-28T14:38:11.388Z,23.80
2017-06-28T14:40:37.325Z,23.80
2017-06-28T14:43:03.271Z,23.70
2017-06-28T14:45:29.265Z,23.90
2017-06-28T14:47:55.210Z,23.70
2017-06-28T14:50:21.169Z,23.30
2017-06-28T14:52:47.174Z,22.60
2017-06-28T14:55:13.117Z,20.80
2017-06-28T14:57:39.096Z,20.00
2017-06-28T15:00:05.029Z,19.80
2017-06-28T15:02:31.009Z,19.70
2017-06-28T15:04:56.964Z,19.70
2017-06-28T15:07:22.897Z,19.60
2017-06-28T15:09:49.632Z,19.80
2017-06-28T15:12:16.320Z,19.90
2017-06-28T15:14:42.261Z,19.90
2017-06-28T15:17:08.984Z,19.60
2017-06-28T15:19:42.782Z,19.60
2017-06-28T15:22:09.513Z,19.80
2017-06-28T15:24:36.193Z,19.70
2017-06-28T15:27:02.129Z,19.70
2017-06-28T15:29:28.114Z,19.60
2017-06-28T15:31:54.857Z,19.60
2017-06-28T15:34:20.798Z,19.60
2017-06-28T15:36:46.789Z,19.90
2017-06-28T15:39:12.742Z,19.90
2017-06-28T15:41:38.690Z,19.70
2017-06-28T15:44:04.673Z,20.00
2017-06-28T15:46:31.349Z,20.40
2017-06-28T15:48:57.344Z,20.40
2017-06-28T15:51:23.281Z,20.60
2017-06-28T15:54:01.797Z,20.80
2017-06-28T15:56:29.561Z,20.70
2017-06-28T15:58:55.502Z,20.70
2017-06-28T16:01:21.590Z,20.80
2017-06-28T16:03:48.273Z,21.00
2017-06-28T16:06:14.246Z,21.00
2017-06-28T16:08:40.222Z,21.10
2017-06-28T16:11:06.918Z,21.20
2017-06-28T16:13:32.893Z,21.20
2017-06-28T16:15:58.829Z,21.40
2017-06-28T16:18:24.788Z,21.60
2017-06-28T16:20:51.509Z,21.40
2017-06-28T16:23:18.229Z,21.50
2017-06-28T16:25:44.974Z,21.70
2017-06-28T16:28:10.974Z,21.70
2017-06-28T16:30:36.969Z,22.00
2017-06-28T16:33:03.658Z,21.90
2017-06-28T16:35:29.602Z,21.90
2017-06-28T16:37:56.334Z,21.70
2017-06-28T16:40:22.295Z,21.70
2017-06-28T16:42:48.266Z,21.90
2017-06-28T16:45:14.293Z,22.10
2017-06-28T16:47:40.314Z,22.40
2017-06-28T16:50:06.327Z,22.40
2017-06-28T16:52:32.370Z,22.40
2017-06-28T16:54:58.378Z,22.60
2017-06-28T16:57:24.666Z,22.70
2017-06-28T16:59:51.098Z,22.80
2017-06-28T17:02:17.138Z,22.80
2017-06-28T17:04:43.886Z,22.90
2017-06-28T17:07:09.875Z,22.90
2017-06-28T17:09:36.594Z,22.90
2017-06-28T17:12:02.617Z,22.80
2017-06-28T17:14:29.429Z,22.80
2017-06-28T17:16:55.380Z,22.80
2017-06-28T17:19:21.386Z,22.90
2017-06-28T17:21:47.322Z,22.90
2017-06-28T17:24:13.332Z,23.00
2017-06-28T17:26:39.430Z,23.00
2017-06-28T17:29:05.382Z,23.00
2017-06-28T17:31:31.321Z,23.00
2017-06-28T17:33:57.341Z,23.00
2017-06-28T17:36:23.284Z,23.10
2017-06-28T17:38:49.237Z,23.10
2017-06-28T17:41:15.221Z,23.10
2017-06-28T17:43:41.178Z,23.10
2017-06-28T17:46:07.240Z,23.10
2017-06-28T17:48:33.225Z,23.00
2017-06-28T17:50:59.185Z,23.10
2017-06-28T17:53:25.141Z,23.00
2017-06-28T17:55:51.189Z,23.00
2017-06-28T17:58:17.871Z,23.00
2017-06-28T18:00:43.822Z,23.00
2017-06-28T18:03:10.593Z,23.00
2017-06-28T18:05:36.607Z,23.00
2017-06-28T18:08:02.541Z,23.00
2017-06-28T18:10:28.533Z,22.90
2017-06-28T18:12:54.497Z,22.90
2017-06-28T18:15:20.469Z,22.90
2017-06-28T18:17:46.450Z,22.80
2017-06-28T18:20:12.399Z,22.80
2017-06-28T18:22:39.189Z,22.70
2017-06-28T18:25:05.138Z,22.70
2017-06-28T18:27:31.882Z,22.60
2017-06-28T18:29:57.838Z,22.60
2017-06-28T18:32:23.770Z,22.60
2017-06-28T18:34:49.757Z,22.60
2017-06-28T18:37:15.697Z,22.60
2017-06-28T18:39:42.385Z,22.70
2017-06-28T18:42:08.425Z,22.60
2017-06-28T18:44:35.117Z,22.60
2017-06-28T18:47:01.073Z,22.60
2017-06-28T18:49:27.057Z,22.70
2017-06-28T18:51:53.062Z,22.60
2017-06-28T18:54:19.009Z,22.60
2017-06-28T18:56:44.997Z,22.60
2017-06-28T18:59:11.688Z,22.50
2017-06-28T19:01:37.654Z,22.40
2017-06-28T19:04:03.617Z,22.40
2017-06-28T19:06:29.561Z,22.30
2017-06-28T19:08:55.560Z,22.30
2017-06-28T19:11:22.250Z,22.20
2017-06-28T19:13:48.193Z,22.20
2017-06-28T19:16:14.910Z,22.10
2017-06-28T19:18:41.710Z,22.10
2017-06-28T19:21:07.726Z,22.00
2017-06-28T19:23:33.677Z,22.00
2017-06-28T19:25:59.649Z,22.00
2017-06-28T19:28:25.656Z,22.00
2017-06-28T19:30:51.601Z,21.90
2017-06-28T19:33:17.561Z,22.00
2017-06-28T19:35:43.606Z,21.90
2017-06-28T19:38:10.301Z,21.90
2017-06-28T19:40:36.253Z,21.80
2017-06-28T19:43:02.274Z,21.80
2017-06-28T19:45:28.206Z,21.80
2017-06-28T19:47:54.167Z,21.70
2017-06-28T19:50:20.157Z,21.70
2017-06-28T19:52:46.115Z,21.70
2017-06-28T19:55:12.122Z,21.60
2017-06-28T19:57:38.114Z,21.60
2017-06-28T20:00:04.054Z,21.60
2017-06-28T20:02:30.046Z,21.60
2017-06-28T20:04:55.994Z,21.50
2017-06-28T20:07:21.934Z,21.50
2017-06-28T20:09:48.657Z,21.30
2017-06-28T20:12:15.393Z,21.30
2017-06-28T20:14:41.339Z,21.30
2017-06-28T20:17:07.422Z,21.20
2017-06-28T20:19:33.373Z,21.20
2017-06-28T20:21:59.357Z,21.20
2017-06-28T20:24:25.293Z,21.20
2017-06-28T20:26:51.229Z,21.20
2017-06-28T20:29:17.949Z,21.10
2017-06-28T20:31:44.634Z,21.00
2017-06-28T20:34:10.624Z,21.00
2017-06-28T20:36:36.573Z,20.90
2017-06-28T20:39:02.593Z,20.90
2017-06-28T20:41:28.538Z,20.90
2017-06-28T20:43:54.481Z,20.90
2017-06-28T20:46:20.469Z,20.80
2017-06-28T20:48:46.413Z,20.80
2017-06-28T20:51:12.357Z,20.70
2017-06-28T20:53:38.345Z,20.50
2017-06-28T20:56:04.276Z,20.40
2017-06-28T20:58:30.214Z,20.40
2017-06-28T21:00:56.202Z,20.50
2017-06-28T21:03:22.881Z,20.40
2017-06-28T21:05:48.820Z,20.40
2017-06-28T21:08:14.791Z,20.20
2017-06-28T21:10:40.794Z,20.10
2017-06-28T21:13:06.766Z,19.90
2017-06-28T21:15:32.746Z,19.80
2017-06-28T21:17:58.705Z,19.80
2017-06-28T21:20:24.665Z,19.80
2017-06-28T21:22:50.652Z,19.70
2017-06-28T21:25:16.595Z,19.60
2017-06-28T21:27:43.291Z,19.70
2017-06-28T21:30:09.325Z,19.70
2017-06-28T21:32:35.296Z,19.70
2017-06-28T21:35:01.242Z,19.80
2017-06-28T21:37:27.241Z,19.80
2017-06-28T21:39:53.189Z,19.80
2017-06-28T21:42:19.134Z,19.70
2017-06-28T21:44:45.130Z,19.70
2017-06-28T21:47:11.082Z,19.50
2017-06-28T21:49:37.034Z,19.40
2017-06-28T21:52:03.004Z,19.40
2017-06-28T21:54:28.993Z,19.50
2017-06-28T21:56:54.937Z,19.60
2017-06-28T21:59:20.873Z,19.60
2017-06-28T22:01:47.606Z,19.60
2017-06-28T22:04:14.304Z,19.60
2017-06-28T22:06:40.254Z,19.60
2017-06-28T22:09:06.229Z,19.50
2017-06-28T22:11:32.169Z,19.50
2017-06-28T22:13:58.153Z,19.50
2017-06-28T22:16:24.865Z,19.50
2017-06-28T22:19:03.381Z,19.40
2017-06-28T22:21:32.099Z,19.40
2017-06-28T22:23:58.037Z,19.50
2017-06-28T22:26:24.061Z,19.40
2017-06-28T22:28:50.007Z,19.40
2017-06-28T22:31:15.960Z,19.40
2017-06-28T22:33:41.949Z,19.40
2017-06-28T22:36:14.982Z,19.30
2017-06-28T22:38:40.973Z,19.30
2017-06-28T22:41:07.658Z,19.20
2017-06-28T22:43:33.605Z,19.20
2017-06-28T22:46:00.329Z,19.20
2017-06-28T22:48:26.275Z,19.20
2017-06-28T22:50:52.234Z,19.10
2017-06-28T22:53:18.233Z,19.10
2017-06-28T22:55:44.925Z,19.10
2017-06-28T22:58:10.897Z,19.00
2017-06-28T23:00:36.875Z,19.00
2017-06-28T23:03:02.809Z,19.00
2017-06-28T23:05:28.749Z,18.90
2017-06-28T23:07:54.729Z,18.90
2017-06-28T23:10:20.674Z,18.90
2017-06-28T23:12:46.614Z,18.90
2017-06-28T23:15:12.606Z,18.90
2017-06-28T23:17:39.326Z,18.90
2017-06-28T23:20:05.305Z,18.90
2017-06-28T23:22:31.295Z,18.90
2017-06-28T23:24:57.246Z,18.90
2017-06-28T23:27:23.189Z,18.80
2017-06-28T23:29:49.210Z,18.70
2017-06-28T23:32:15.162Z,18.70
2017-06-28T23:34:41.106Z,18.70
2017-06-28T23:37:07.132Z,18.70
2017-06-28T23:39:33.068Z,18.70
2017-06-28T23:41:59.010Z,18.80
2017-06-28T23:44:25.758Z,18.60
2017-06-28T23:46:51.706Z,18.60
2017-06-28T23:49:17.673Z,18.60
2017-06-28T23:51:43.665Z,18.50
2017-06-28T23:54:10.348Z,18.60
2017-06-28T23:56:37.065Z,18.50
2017-06-28T23:59:03.009Z,18.50
